<?xml version="1.0" encoding="UTF-8" standalone="no" ?>
<gpx xmlns="http://www.topografix.com/GPX/1/1" xmlns:xsi="http://www.w3.org/2001/XMLSchema-instance" xsi:schemaLocation="http://www.topografix.com/GPX/1/1 http://www.topografix.com/GPX/1/1/gpx.xsd" version="1.1" creator="VisuGPX - https://www.visugpx.com">
  <metadata>
    <name>BelleIsleEnTerre_CoatAnNoz</name>
    <desc><![CDATA[gnerando idor: 9221581_9223892_9307726_9314161]]></desc>
  </metadata>
  <trk>
    <name><![CDATA[BIET_CoatAnNoz_18.4km-9223892]]></name>
    <extensions>
      <line xmlns="http://www.topografix.com/GPX/gpx_style/0/2">
        <color>00FF00</color>
        <width>4</width>
      </line>
    </extensions>
    <trkseg>
      <trkpt lat="48.54411" lon="-3.39635">
        <ele>93</ele>
        <time>2023-10-30T17:44:30Z</time>
      </trkpt>
      <trkpt lat="48.54417" lon="-3.39772">
        <ele>96</ele>
        <time>2023-10-30T17:46:31Z</time>
      </trkpt>
      <trkpt lat="48.54252" lon="-3.39798">
        <ele>101</ele>
        <time>2023-10-30T17:50:13Z</time>
      </trkpt>
      <trkpt lat="48.54142" lon="-3.39794">
        <ele>103</ele>
        <time>2023-10-30T17:52:40Z</time>
      </trkpt>
      <trkpt lat="48.5398" lon="-3.39815">
        <ele>104</ele>
        <time>2023-10-30T17:56:16Z</time>
      </trkpt>
      <trkpt lat="48.53874" lon="-3.39933">
        <ele>114</ele>
        <time>2023-10-30T17:59:12Z</time>
      </trkpt>
      <trkpt lat="48.53798" lon="-3.39978">
        <ele>121</ele>
        <time>2023-10-30T18:01:01Z</time>
      </trkpt>
      <trkpt lat="48.53764" lon="-3.40124">
        <ele>129</ele>
        <time>2023-10-30T18:03:18Z</time>
      </trkpt>
      <trkpt lat="48.53712" lon="-3.4009">
        <ele>135</ele>
        <time>2023-10-30T18:04:34Z</time>
      </trkpt>
      <trkpt lat="48.53667" lon="-3.40188">
        <ele>140</ele>
        <time>2023-10-30T18:06:19Z</time>
      </trkpt>
      <trkpt lat="48.53585" lon="-3.40091">
        <ele>144</ele>
        <time>2023-10-30T18:08:38Z</time>
      </trkpt>
      <trkpt lat="48.53403" lon="-3.40392">
        <ele>156</ele>
        <time>2023-10-30T18:14:38Z</time>
      </trkpt>
      <trkpt lat="48.53278" lon="-3.40632">
        <ele>165</ele>
        <time>2023-10-30T18:19:08Z</time>
      </trkpt>
      <trkpt lat="48.53051" lon="-3.41214">
        <ele>170</ele>
        <time>2023-10-30T18:29:05Z</time>
      </trkpt>
      <trkpt lat="48.5305" lon="-3.41373">
        <ele>171</ele>
        <time>2023-10-30T18:31:25Z</time>
      </trkpt>
      <trkpt lat="48.5303" lon="-3.41522">
        <ele>172</ele>
        <time>2023-10-30T18:33:40Z</time>
      </trkpt>
      <trkpt lat="48.52947" lon="-3.41559">
        <ele>173</ele>
        <time>2023-10-30T18:35:35Z</time>
      </trkpt>
      <trkpt lat="48.52945" lon="-3.41581">
        <ele>174</ele>
        <time>2023-10-30T18:35:55Z</time>
      </trkpt>
      <trkpt lat="48.52948" lon="-3.4167">
        <ele>174</ele>
        <time>2023-10-30T18:37:14Z</time>
      </trkpt>
      <trkpt lat="48.52558" lon="-3.41525">
        <ele>159</ele>
        <time>2023-10-30T18:46:09Z</time>
      </trkpt>
      <trkpt lat="48.52568" lon="-3.41388">
        <ele>158</ele>
        <time>2023-10-30T18:48:11Z</time>
      </trkpt>
      <trkpt lat="48.52625" lon="-3.41273">
        <ele>163</ele>
        <time>2023-10-30T18:50:18Z</time>
      </trkpt>
      <trkpt lat="48.52595" lon="-3.41138">
        <ele>163</ele>
        <time>2023-10-30T18:52:24Z</time>
      </trkpt>
      <trkpt lat="48.52382" lon="-3.41076">
        <ele>154</ele>
        <time>2023-10-30T18:57:14Z</time>
      </trkpt>
      <trkpt lat="48.52284" lon="-3.40959">
        <ele>160</ele>
        <time>2023-10-30T19:00:00Z</time>
      </trkpt>
      <trkpt lat="48.52247" lon="-3.41">
        <ele>159</ele>
        <time>2023-10-30T19:01:02Z</time>
      </trkpt>
      <trkpt lat="48.52183" lon="-3.40964">
        <ele>153</ele>
        <time>2023-10-30T19:02:33Z</time>
      </trkpt>
      <trkpt lat="48.52152" lon="-3.40387">
        <ele>130</ele>
        <time>2023-10-30T19:11:04Z</time>
      </trkpt>
      <trkpt lat="48.52217" lon="-3.40377">
        <ele>134</ele>
        <time>2023-10-30T19:12:32Z</time>
      </trkpt>
      <trkpt lat="48.52122" lon="-3.40153">
        <ele>112</ele>
        <time>2023-10-30T19:16:27Z</time>
      </trkpt>
      <trkpt lat="48.5196" lon="-3.40239">
        <ele>109</ele>
        <time>2023-10-30T19:20:16Z</time>
      </trkpt>
      <trkpt lat="48.51902" lon="-3.40132">
        <ele>115</ele>
        <time>2023-10-30T19:22:18Z</time>
      </trkpt>
      <trkpt lat="48.51696" lon="-3.39851">
        <ele>158</ele>
        <time>2023-10-30T19:28:28Z</time>
      </trkpt>
      <trkpt lat="48.51672" lon="-3.39714">
        <ele>164</ele>
        <time>2023-10-30T19:30:34Z</time>
      </trkpt>
      <trkpt lat="48.51601" lon="-3.39719">
        <ele>168</ele>
        <time>2023-10-30T19:32:09Z</time>
      </trkpt>
      <trkpt lat="48.51595" lon="-3.3955">
        <ele>170</ele>
        <time>2023-10-30T19:34:38Z</time>
      </trkpt>
      <trkpt lat="48.51639" lon="-3.39336">
        <ele>180</ele>
        <time>2023-10-30T19:37:56Z</time>
      </trkpt>
      <trkpt lat="48.5173" lon="-3.39316">
        <ele>180</ele>
        <time>2023-10-30T19:39:59Z</time>
      </trkpt>
      <trkpt lat="48.51754" lon="-3.39203">
        <ele>183</ele>
        <time>2023-10-30T19:41:44Z</time>
      </trkpt>
      <trkpt lat="48.51875" lon="-3.39193">
        <ele>183</ele>
        <time>2023-10-30T19:44:26Z</time>
      </trkpt>
      <trkpt lat="48.52041" lon="-3.39324">
        <ele>157</ele>
        <time>2023-10-30T19:48:36Z</time>
      </trkpt>
      <trkpt lat="48.52217" lon="-3.39566">
        <ele>125</ele>
        <time>2023-10-30T19:53:53Z</time>
      </trkpt>
      <trkpt lat="48.52247" lon="-3.39453">
        <ele>116</ele>
        <time>2023-10-30T19:55:41Z</time>
      </trkpt>
      <trkpt lat="48.52129" lon="-3.39265">
        <ele>134</ele>
        <time>2023-10-30T19:59:30Z</time>
      </trkpt>
      <trkpt lat="48.52092" lon="-3.3904">
        <ele>134</ele>
        <time>2023-10-30T20:02:55Z</time>
      </trkpt>
      <trkpt lat="48.51916" lon="-3.38785">
        <ele>154</ele>
        <time>2023-10-30T20:08:20Z</time>
      </trkpt>
      <trkpt lat="48.51649" lon="-3.38678">
        <ele>166</ele>
        <time>2023-10-30T20:14:29Z</time>
      </trkpt>
      <trkpt lat="48.51514" lon="-3.37989">
        <ele>172</ele>
        <time>2023-10-30T20:25:04Z</time>
      </trkpt>
      <trkpt lat="48.51375" lon="-3.37846">
        <ele>184</ele>
        <time>2023-10-30T20:28:48Z</time>
      </trkpt>
      <trkpt lat="48.51439" lon="-3.37529">
        <ele>203</ele>
        <time>2023-10-30T20:33:41Z</time>
      </trkpt>
      <trkpt lat="48.51192" lon="-3.37412">
        <ele>220</ele>
        <time>2023-10-30T20:39:27Z</time>
      </trkpt>
      <trkpt lat="48.51162" lon="-3.37519">
        <ele>213</ele>
        <time>2023-10-30T20:41:10Z</time>
      </trkpt>
      <trkpt lat="48.51081" lon="-3.37463">
        <ele>218</ele>
        <time>2023-10-30T20:43:08Z</time>
      </trkpt>
      <trkpt lat="48.51057" lon="-3.37213">
        <ele>229</ele>
        <time>2023-10-30T20:46:52Z</time>
      </trkpt>
      <trkpt lat="48.51246" lon="-3.36468">
        <ele>261</ele>
        <time>2023-10-30T20:58:37Z</time>
      </trkpt>
      <trkpt lat="48.51257" lon="-3.35764">
        <ele>185</ele>
        <time>2023-10-30T21:09:00Z</time>
      </trkpt>
      <trkpt lat="48.51267" lon="-3.35268">
        <ele>148</ele>
        <time>2023-10-30T21:16:18Z</time>
      </trkpt>
      <trkpt lat="48.51645" lon="-3.35381">
        <ele>142</ele>
        <time>2023-10-30T21:24:52Z</time>
      </trkpt>
      <trkpt lat="48.51929" lon="-3.35457">
        <ele>137</ele>
        <time>2023-10-30T21:31:17Z</time>
      </trkpt>
      <trkpt lat="48.51906" lon="-3.35595">
        <ele>141</ele>
        <time>2023-10-30T21:33:23Z</time>
      </trkpt>
      <trkpt lat="48.51936" lon="-3.35692">
        <ele>145</ele>
        <time>2023-10-30T21:34:58Z</time>
      </trkpt>
      <trkpt lat="48.51967" lon="-3.35891">
        <ele>150</ele>
        <time>2023-10-30T21:37:58Z</time>
      </trkpt>
      <trkpt lat="48.52085" lon="-3.35968">
        <ele>145</ele>
        <time>2023-10-30T21:40:50Z</time>
      </trkpt>
      <trkpt lat="48.52078" lon="-3.35718">
        <ele>139</ele>
        <time>2023-10-30T21:44:31Z</time>
      </trkpt>
      <trkpt lat="48.52108" lon="-3.356">
        <ele>136</ele>
        <time>2023-10-30T21:46:23Z</time>
      </trkpt>
      <trkpt lat="48.52204" lon="-3.35738">
        <ele>135</ele>
        <time>2023-10-30T21:49:20Z</time>
      </trkpt>
      <trkpt lat="48.52195" lon="-3.35873">
        <ele>137</ele>
        <time>2023-10-30T21:51:20Z</time>
      </trkpt>
      <trkpt lat="48.52267" lon="-3.35995">
        <ele>139</ele>
        <time>2023-10-30T21:53:44Z</time>
      </trkpt>
      <trkpt lat="48.52503" lon="-3.35931">
        <ele>138</ele>
        <time>2023-10-30T21:59:04Z</time>
      </trkpt>
      <trkpt lat="48.52583" lon="-3.35941">
        <ele>136</ele>
        <time>2023-10-30T22:00:51Z</time>
      </trkpt>
      <trkpt lat="48.52591" lon="-3.36092">
        <ele>138</ele>
        <time>2023-10-30T22:03:05Z</time>
      </trkpt>
      <trkpt lat="48.52565" lon="-3.3624">
        <ele>145</ele>
        <time>2023-10-30T22:05:20Z</time>
      </trkpt>
      <trkpt lat="48.52614" lon="-3.36324">
        <ele>135</ele>
        <time>2023-10-30T22:06:59Z</time>
      </trkpt>
      <trkpt lat="48.52638" lon="-3.36428">
        <ele>133</ele>
        <time>2023-10-30T22:08:37Z</time>
      </trkpt>
      <trkpt lat="48.52553" lon="-3.36613">
        <ele>143</ele>
        <time>2023-10-30T22:11:56Z</time>
      </trkpt>
      <trkpt lat="48.52564" lon="-3.36826">
        <ele>156</ele>
        <time>2023-10-30T22:15:05Z</time>
      </trkpt>
      <trkpt lat="48.52512" lon="-3.36966">
        <ele>172</ele>
        <time>2023-10-30T22:17:26Z</time>
      </trkpt>
      <trkpt lat="48.52523" lon="-3.37067">
        <ele>180</ele>
        <time>2023-10-30T22:18:57Z</time>
      </trkpt>
      <trkpt lat="48.52499" lon="-3.37151">
        <ele>187</ele>
        <time>2023-10-30T22:20:18Z</time>
      </trkpt>
      <trkpt lat="48.52556" lon="-3.37259">
        <ele>186</ele>
        <time>2023-10-30T22:22:20Z</time>
      </trkpt>
      <trkpt lat="48.5259" lon="-3.37437">
        <ele>190</ele>
        <time>2023-10-30T22:25:03Z</time>
      </trkpt>
      <trkpt lat="48.52701" lon="-3.37478">
        <ele>177</ele>
        <time>2023-10-30T22:27:36Z</time>
      </trkpt>
      <trkpt lat="48.52698" lon="-3.37677">
        <ele>185</ele>
        <time>2023-10-30T22:30:32Z</time>
      </trkpt>
      <trkpt lat="48.52823" lon="-3.37825">
        <ele>181</ele>
        <time>2023-10-30T22:34:04Z</time>
      </trkpt>
      <trkpt lat="48.53036" lon="-3.38055">
        <ele>176</ele>
        <time>2023-10-30T22:39:53Z</time>
      </trkpt>
      <trkpt lat="48.53218" lon="-3.38172">
        <ele>181</ele>
        <time>2023-10-30T22:44:17Z</time>
      </trkpt>
      <trkpt lat="48.53293" lon="-3.38065">
        <ele>174</ele>
        <time>2023-10-30T22:46:35Z</time>
      </trkpt>
      <trkpt lat="48.53326" lon="-3.3804">
        <ele>172</ele>
        <time>2023-10-30T22:47:24Z</time>
      </trkpt>
      <trkpt lat="48.53414" lon="-3.38096">
        <ele>166</ele>
        <time>2023-10-30T22:49:32Z</time>
      </trkpt>
      <trkpt lat="48.53424" lon="-3.38198">
        <ele>165</ele>
        <time>2023-10-30T22:51:03Z</time>
      </trkpt>
      <trkpt lat="48.53485" lon="-3.38264">
        <ele>154</ele>
        <time>2023-10-30T22:52:43Z</time>
      </trkpt>
      <trkpt lat="48.53485" lon="-3.38387">
        <ele>152</ele>
        <time>2023-10-30T22:54:32Z</time>
      </trkpt>
      <trkpt lat="48.5362" lon="-3.38453">
        <ele>145</ele>
        <time>2023-10-30T22:57:41Z</time>
      </trkpt>
      <trkpt lat="48.53664" lon="-3.3853">
        <ele>146</ele>
        <time>2023-10-30T22:59:11Z</time>
      </trkpt>
      <trkpt lat="48.5338" lon="-3.3857">
        <ele>159</ele>
        <time>2023-10-30T23:05:31Z</time>
      </trkpt>
      <trkpt lat="48.53333" lon="-3.38673">
        <ele>157</ele>
        <time>2023-10-30T23:07:22Z</time>
      </trkpt>
      <trkpt lat="48.53228" lon="-3.38652">
        <ele>163</ele>
        <time>2023-10-30T23:09:43Z</time>
      </trkpt>
      <trkpt lat="48.53178" lon="-3.38693">
        <ele>161</ele>
        <time>2023-10-30T23:10:59Z</time>
      </trkpt>
      <trkpt lat="48.53157" lon="-3.38831">
        <ele>153</ele>
        <time>2023-10-30T23:13:04Z</time>
      </trkpt>
      <trkpt lat="48.53178" lon="-3.38938">
        <ele>146</ele>
        <time>2023-10-30T23:14:43Z</time>
      </trkpt>
      <trkpt lat="48.53164" lon="-3.39157">
        <ele>135</ele>
        <time>2023-10-30T23:17:57Z</time>
      </trkpt>
      <trkpt lat="48.53435" lon="-3.38994">
        <ele>131</ele>
        <time>2023-10-30T23:24:27Z</time>
      </trkpt>
      <trkpt lat="48.53816" lon="-3.39127">
        <ele>131</ele>
        <time>2023-10-30T23:33:09Z</time>
      </trkpt>
      <trkpt lat="48.53906" lon="-3.39252">
        <ele>129</ele>
        <time>2023-10-30T23:35:52Z</time>
      </trkpt>
      <trkpt lat="48.5403" lon="-3.39381">
        <ele>122</ele>
        <time>2023-10-30T23:39:13Z</time>
      </trkpt>
      <trkpt lat="48.54251" lon="-3.39563">
        <ele>100</ele>
        <time>2023-10-30T23:44:49Z</time>
      </trkpt>
      <trkpt lat="48.54377" lon="-3.39581">
        <ele>95</ele>
        <time>2023-10-30T23:47:37Z</time>
      </trkpt>
      <trkpt lat="48.54415" lon="-3.3962">
        <ele>94</ele>
        <time>2023-10-30T23:48:39Z</time>
      </trkpt>
    </trkseg>
  </trk>
</gpx>